Time;durP1;ratioP1;P1;durP2;ratioP2;P2;SDS_P1;SDS_P2;PMS_P1;PMS_P2;Temp;Humidity;BMP_temperature;BMP_pressure;BME280_temperature;BME280_humidity;BME280_pressure;Samples;Min_cycle;Max_cycle;Signal;HPM_P1;HPM_P2
2021/04/04 00:02:24;;;;;;;20.80;6.97;;;5.50;99.90;;;;;;5095596;28;20161;-65
2021/04/04 00:04:50;;;;;;;18.50;8.30;;;5.40;99.90;;;;;;5093552;28;20634;-65
2021/04/04 00:07:15;;;;;;;18.03;5.70;;;5.40;99.90;;;;;;5094380;28;20389;-65
2021/04/04 00:09:41;;;;;;;19.33;7.50;;;5.40;99.90;;;;;;5094771;28;20492;-65
2021/04/04 00:12:08;;;;;;;21.63;7.47;;;5.40;99.90;;;;;;5095527;28;20634;-65
2021/04/04 00:14:33;;;;;;;18.57;8.23;;;5.40;99.90;;;;;;5093866;28;20454;-65
2021/04/04 00:16:59;;;;;;;18.40;6.83;;;5.30;99.90;;;;;;5094917;28;20480;-68
2021/04/04 00:19:25;;;;;;;20.37;6.73;;;5.30;99.90;;;;;;5093513;28;20187;-65
2021/04/04 00:21:50;;;;;;;24.07;8.00;;;5.30;99.90;;;;;;5094905;28;20170;-65
2021/04/04 00:24:16;;;;;;;17.40;8.20;;;5.20;99.90;;;;;;5094568;28;20198;-65
2021/04/04 00:26:41;;;;;;;17.47;6.60;;;5.20;99.90;;;;;;5094120;28;20624;-65
2021/04/04 00:29:08;;;;;;;22.50;9.03;;;5.20;99.90;;;;;;5094501;28;20170;-64
2021/04/04 00:31:35;;;;;;;17.23;7.17;;;5.10;99.90;;;;;;5094441;28;20158;-65
2021/04/04 00:34:00;;;;;;;20.17;8.47;;;5.10;99.90;;;;;;5094502;28;20492;-64
2021/04/04 00:36:26;;;;;;;16.97;7.63;;;5.10;99.90;;;;;;5093317;28;20476;-65
2021/04/04 00:38:52;;;;;;;14.80;7.07;;;5.20;99.90;;;;;;5094228;28;20653;-65
2021/04/04 00:41:17;;;;;;;17.47;6.80;;;5.20;99.90;;;;;;5094283;28;20155;-65
2021/04/04 00:43:43;;;;;;;23.90;6.10;;;5.30;99.90;;;;;;5094224;28;20187;-65
2021/04/04 00:46:08;;;;;;;15.27;6.40;;;5.30;99.90;;;;;;5096788;28;20191;-65
2021/04/04 00:48:34;;;;;;;18.00;7.87;;;5.30;99.90;;;;;;5114781;28;20159;-65
2021/04/04 00:50:59;;;;;;;20.40;8.17;;;5.30;99.90;;;;;;5114760;28;20505;-65
2021/04/04 00:53:25;;;;;;;20.53;8.63;;;5.30;99.90;;;;;;5114409;28;20154;-64
2021/04/04 00:55:51;;;;;;;14.20;7.23;;;5.30;99.90;;;;;;5114442;28;20158;-64
2021/04/04 00:58:17;;;;;;;16.13;7.83;;;5.30;99.90;;;;;;5114418;28;20232;-64
2021/04/04 01:00:42;;;;;;;17.73;6.10;;;5.30;99.90;;;;;;5114252;28;20561;-65
2021/04/04 01:03:08;;;;;;;21.37;8.80;;;5.20;99.90;;;;;;5113694;28;20547;-65
2021/04/04 01:05:39;;;;;;;25.80;8.77;;;5.20;99.90;;;;;;5114176;28;20245;-64
2021/04/04 01:08:06;;;;;;;16.87;7.53;;;5.20;99.90;;;;;;5114133;28;20388;-64
2021/04/04 01:10:34;;;;;;;18.60;6.70;;;5.20;99.90;;;;;;5114139;28;20472;-64
2021/04/04 01:13:25;;;;;;;21.60;7.63;;;5.10;99.90;;;;;;5112797;28;20393;-64
2021/04/04 01:19:03;;;;;;;19.77;7.27;;;5.10;99.90;;;;;;5111070;27;20506;-65
2021/04/04 01:21:46;;;;;;;14.60;7.70;;;5.00;99.90;;;;;;5095698;28;20435;-65
2021/04/04 01:24:27;;;;;;;21.00;7.70;;;5.00;99.90;;;;;;5090443;28;20377;-65
2021/04/04 01:29:43;;;;;;;21.57;9.23;;;5.00;99.90;;;;;;5110826;27;20509;-64
2021/04/04 01:32:09;;;;;;;20.77;7.97;;;5.00;99.90;;;;;;5111255;28;20384;-64
2021/04/04 01:34:37;;;;;;;13.90;8.60;;;4.90;99.90;;;;;;5111162;28;20449;-64
2021/04/04 01:37:06;;;;;;;24.10;10.03;;;4.90;99.90;;;;;;5108964;28;20387;-64
2021/04/04 01:39:39;;;;;;;18.60;7.70;;;4.90;99.90;;;;;;5096974;28;20969;-64
2021/04/04 01:42:07;;;;;;;22.80;8.27;;;4.80;99.90;;;;;;5109328;28;20464;-64
2021/04/04 01:44:34;;;;;;;17.90;8.30;;;4.80;99.90;;;;;;5110604;28;20392;-64
2021/04/04 01:47:01;;;;;;;18.57;8.20;;;4.80;99.90;;;;;;5110666;28;20424;-64
2021/04/04 01:49:28;;;;;;;14.33;7.17;;;4.80;99.90;;;;;;5110868;28;20436;-64
2021/04/04 01:51:54;;;;;;;16.13;7.57;;;4.80;99.90;;;;;;5110351;28;20384;-64
2021/04/04 01:54:21;;;;;;;21.23;8.53;;;4.80;99.90;;;;;;5109460;28;20915;-64
2021/04/04 01:56:48;;;;;;;20.93;9.23;;;4.80;99.90;;;;;;5110309;28;20396;-64
2021/04/04 01:59:15;;;;;;;29.80;8.67;;;4.80;99.90;;;;;;5110323;28;20831;-64
2021/04/04 02:01:45;;;;;;;22.03;8.53;;;4.90;99.90;;;;;;5110518;28;20483;-64
2021/04/04 02:04:11;;;;;;;17.33;7.20;;;4.90;99.90;;;;;;5110392;28;20471;-65
2021/04/04 02:06:38;;;;;;;21.17;8.87;;;4.90;99.90;;;;;;5110364;28;20453;-65
2021/04/04 02:09:06;;;;;;;18.40;8.03;;;4.90;99.90;;;;;;5109932;28;20447;-64
2021/04/04 02:11:33;;;;;;;18.10;9.30;;;4.90;99.90;;;;;;5109218;28;20411;-64
2021/04/04 02:14:05;;;;;;;14.50;7.97;;;5.00;99.90;;;;;;5110051;28;20446;-65
2021/04/04 02:16:32;;;;;;;19.63;10.00;;;5.00;99.90;;;;;;5108946;28;20393;-64
2021/04/04 02:18:58;;;;;;;23.80;8.23;;;5.00;99.90;;;;;;5109948;28;20404;-64
2021/04/04 02:21:27;;;;;;;14.80;7.50;;;5.10;99.90;;;;;;5109952;28;20389;-64
2021/04/04 02:23:53;;;;;;;22.73;8.87;;;5.10;99.90;;;;;;5109925;28;20158;-64
2021/04/04 02:26:19;;;;;;;28.70;9.77;;;5.10;99.90;;;;;;5109705;28;20807;-64
2021/04/04 02:28:44;;;;;;;21.77;7.67;;;5.20;99.90;;;;;;5108857;28;20568;-66
2021/04/04 02:31:14;;;;;;;18.30;8.73;;;5.20;99.90;;;;;;5109851;28;20571;-64
2021/04/04 02:33:49;;;;;;;16.50;8.40;;;5.30;99.90;;;;;;5109655;28;20156;-65
2021/04/04 02:36:15;;;;;;;21.33;9.10;;;5.30;99.90;;;;;;5108445;28;20428;-65
2021/04/04 02:38:47;;;;;;;18.60;9.63;;;5.40;99.90;;;;;;5109548;28;20397;-65
2021/04/04 02:41:13;;;;;;;21.53;8.67;;;5.40;99.90;;;;;;5075356;28;20396;-65
2021/04/04 02:43:41;;;;;;;19.53;7.73;;;5.40;99.90;;;;;;5075789;28;20440;-65
2021/04/04 02:46:11;;;;;;;20.33;7.80;;;5.40;99.90;;;;;;5075907;28;20439;-65
2021/04/04 02:48:50;;;;;;;17.07;8.87;;;5.50;99.90;;;;;;5075928;28;20441;-66
2021/04/04 02:51:19;;;;;;;18.53;7.30;;;5.50;99.90;;;;;;5075519;28;20388;-66
2021/04/04 02:53:50;;;;;;;12.90;7.10;;;5.50;99.90;;;;;;5075452;28;20403;-65
2021/04/04 02:56:18;;;;;;;23.70;7.70;;;5.60;99.90;;;;;;5075470;28;20419;-66
2021/04/04 02:58:46;;;;;;;17.80;7.70;;;5.60;99.90;;;;;;5076213;28;20398;-65
2021/04/04 03:01:14;;;;;;;16.60;7.53;;;5.60;99.90;;;;;;5075494;28;20386;-65
2021/04/04 03:03:43;;;;;;;17.17;7.10;;;5.60;99.90;;;;;;5074559;28;20418;-65
2021/04/04 03:06:10;;;;;;;16.30;7.07;;;5.70;99.90;;;;;;5075485;28;20394;-65
2021/04/04 03:08:39;;;;;;;12.50;7.80;;;5.70;99.90;;;;;;5075181;28;20448;-66
2021/04/04 03:11:06;;;;;;;17.60;8.27;;;5.70;99.90;;;;;;5075545;28;20401;-65
2021/04/04 03:13:33;;;;;;;17.30;7.00;;;5.70;99.90;;;;;;5074100;28;20395;-65
2021/04/04 03:15:59;;;;;;;21.13;8.60;;;5.70;99.90;;;;;;5075236;28;20392;-65
2021/04/04 03:18:26;;;;;;;23.50;9.00;;;5.80;99.90;;;;;;5075078;28;20406;-65
2021/04/04 03:20:53;;;;;;;17.00;7.03;;;5.80;99.90;;;;;;5075483;28;20905;-66
2021/04/04 03:23:20;;;;;;;17.17;7.40;;;5.80;99.90;;;;;;5075131;28;20926;-65
2021/04/04 03:25:46;;;;;;;16.90;7.40;;;5.80;99.90;;;;;;5074947;28;20401;-65
2021/04/04 03:28:16;;;;;;;22.47;7.60;;;5.80;99.90;;;;;;5075063;28;20839;-66
2021/04/04 03:30:43;;;;;;;23.17;7.67;;;5.90;99.90;;;;;;5074938;28;20447;-65
2021/04/04 03:33:12;;;;;;;16.97;8.90;;;5.80;99.90;;;;;;5074734;28;20895;-66
2021/04/04 03:35:39;;;;;;;19.23;7.47;;;5.90;99.90;;;;;;5074951;28;20922;-66
2021/04/04 03:38:07;;;;;;;15.93;7.20;;;5.90;99.90;;;;;;5075202;28;20416;-65
2021/04/04 03:40:33;;;;;;;18.97;8.47;;;5.90;99.90;;;;;;5074507;28;20466;-65
2021/04/04 03:43:03;;;;;;;22.13;7.30;;;5.90;99.90;;;;;;5074730;28;20391;-67
2021/04/04 03:45:29;;;;;;;17.83;7.70;;;5.90;99.90;;;;;;5074424;28;20229;-65
2021/04/04 03:47:55;;;;;;;18.37;8.07;;;5.90;99.90;;;;;;5074543;28;20898;-66
2021/04/04 03:50:22;;;;;;;23.77;8.20;;;5.90;99.90;;;;;;5074450;28;20497;-65
2021/04/04 03:52:50;;;;;;;20.53;7.93;;;5.90;99.90;;;;;;5073869;28;20390;-65
2021/04/04 03:55:20;;;;;;;24.57;8.07;;;5.90;99.90;;;;;;5074404;28;20391;-65
2021/04/04 03:57:48;;;;;;;17.00;7.30;;;5.90;99.90;;;;;;5072963;28;20402;-65
2021/04/04 04:00:19;;;;;;;14.93;6.90;;;5.90;99.90;;;;;;5072904;28;20966;-65
2021/04/04 04:02:45;;;;;;;19.80;7.47;;;5.90;99.90;;;;;;5074029;28;20421;-65
2021/04/04 04:05:12;;;;;;;17.27;8.50;;;5.90;99.90;;;;;;5074220;28;20399;-65
2021/04/04 04:07:39;;;;;;;15.60;6.70;;;5.90;99.90;;;;;;5074099;28;20390;-65
2021/04/04 04:10:07;;;;;;;17.73;8.37;;;5.90;99.90;;;;;;5074626;28;20409;-65
2021/04/04 04:12:33;;;;;;;20.10;7.20;;;5.90;99.90;;;;;;5073864;28;20397;-65
2021/04/04 04:15:00;;;;;;;18.53;7.40;;;5.90;99.90;;;;;;5074004;28;20887;-65
2021/04/04 04:17:27;;;;;;;16.83;7.60;;;5.90;99.90;;;;;;5072669;28;20445;-65
2021/04/04 04:19:53;;;;;;;18.07;7.50;;;5.90;99.90;;;;;;5074015;28;20879;-65
2021/04/04 04:22:22;;;;;;;18.47;7.37;;;5.90;99.90;;;;;;5073767;28;20423;-65
2021/04/04 04:24:49;;;;;;;18.07;7.43;;;5.90;99.90;;;;;;5073875;28;20405;-65
2021/04/04 04:27:16;;;;;;;14.50;6.60;;;5.90;99.90;;;;;;5077214;28;20406;-65
2021/04/04 04:29:45;;;;;;;17.30;7.50;;;5.90;99.90;;;;;;5093751;28;20469;-65
2021/04/04 04:32:12;;;;;;;16.70;8.30;;;5.90;99.90;;;;;;5093970;28;20393;-66
2021/04/04 04:34:41;;;;;;;14.67;7.20;;;5.90;99.90;;;;;;5093957;28;20389;-65
2021/04/04 04:37:08;;;;;;;14.43;7.07;;;5.90;99.90;;;;;;5093678;28;20397;-66
2021/04/04 04:39:35;;;;;;;16.97;6.80;;;5.90;99.90;;;;;;5087067;28;20514;-65
2021/04/04 04:42:01;;;;;;;19.60;7.33;;;5.90;99.90;;;;;;5072375;28;20616;-65
2021/04/04 04:44:29;;;;;;;16.37;7.57;;;5.90;99.90;;;;;;5073858;28;20944;-65
2021/04/04 04:46:55;;;;;;;19.07;8.17;;;5.90;99.90;;;;;;5072188;28;20431;-65
2021/04/04 04:49:21;;;;;;;15.93;6.80;;;5.90;99.90;;;;;;5073126;28;20439;-65
2021/04/04 04:51:48;;;;;;;25.67;9.10;;;5.90;99.90;;;;;;5073303;28;20386;-65
2021/04/04 04:54:14;;;;;;;14.03;7.77;;;5.90;99.90;;;;;;5073510;28;20393;-65
2021/04/04 04:56:40;;;;;;;16.67;7.50;;;5.90;99.90;;;;;;5073106;28;20390;-65
2021/04/04 04:59:08;;;;;;;17.40;8.80;;;5.90;99.90;;;;;;5072096;28;20398;-65
2021/04/04 05:01:38;;;;;;;18.30;11.00;;;5.90;99.90;;;;;;5073705;28;20405;-65
2021/04/04 05:04:04;;;;;;;31.13;12.30;;;5.90;99.90;;;;;;5072879;28;20493;-65
2021/04/04 05:06:30;;;;;;;21.47;10.80;;;5.90;99.90;;;;;;5073743;28;20939;-65
2021/04/04 05:08:58;;;;;;;19.10;11.40;;;5.90;99.90;;;;;;5073227;28;20438;-65
2021/04/04 05:11:25;;;;;;;16.50;10.37;;;5.90;99.90;;;;;;5073231;28;20198;-65
2021/04/04 05:13:51;;;;;;;21.43;9.70;;;5.90;99.90;;;;;;5073343;28;20393;-65
2021/04/04 05:16:17;;;;;;;18.17;9.30;;;6.00;99.90;;;;;;5073062;28;20736;-65
2021/04/04 05:18:47;;;;;;;27.07;16.40;;;6.00;99.90;;;;;;5073837;28;20185;-65
2021/04/04 05:21:23;;;;;;;28.60;19.33;;;6.00;99.90;;;;;;5073527;28;20163;-65
2021/04/04 05:23:53;;;;;;;29.40;16.63;;;6.00;99.90;;;;;;5072981;28;20390;-65
2021/04/04 05:26:23;;;;;;;28.73;17.67;;;6.00;99.90;;;;;;5073122;28;20895;-65
2021/04/04 05:28:49;;;;;;;25.50;17.50;;;6.00;99.90;;;;;;5072898;28;20462;-65
2021/04/04 05:31:14;;;;;;;24.67;17.70;;;6.00;99.90;;;;;;5072937;28;20397;-65
2021/04/04 05:33:40;;;;;;;29.83;18.43;;;6.10;99.90;;;;;;5073204;28;20152;-65
2021/04/04 05:36:06;;;;;;;24.23;17.17;;;6.10;99.90;;;;;;5074084;28;20302;-65
2021/04/04 05:38:31;;;;;;;35.23;17.20;;;6.10;99.90;;;;;;5072867;28;20599;-65
2021/04/04 05:41:00;;;;;;;29.47;17.60;;;6.10;99.90;;;;;;5072855;28;20172;-65
2021/04/04 05:43:34;;;;;;;25.43;14.60;;;6.10;99.90;;;;;;5071686;28;20159;-65
2021/04/04 05:46:21;;;;;;;17.50;12.30;;;6.20;99.90;;;;;;5072771;28;20432;-65
2021/04/04 05:52:10;;;;;;;22.33;10.40;;;6.20;99.90;;;;;;5131492;27;20571;-65
2021/04/04 05:55:16;;;;;;;20.80;10.67;;;6.20;99.90;;;;;;5110028;28;20478;-65
2021/04/04 06:00:27;;;;;;;20.23;10.40;;;6.20;99.90;;;;;;5131545;27;20513;-65
2021/04/04 06:06:12;;;;;;;17.30;12.70;;;6.20;99.90;;;;;;5111199;27;20513;-65
2021/04/04 06:17:20;;;;;;;19.10;11.70;;;6.20;99.90;;;;;;5111390;27;20512;-65
2021/04/04 06:19:56;;;;;;;19.37;9.83;;;6.30;99.90;;;;;;5111207;28;20966;-65
2021/04/04 06:22:37;;;;;;;17.77;9.20;;;6.30;99.90;;;;;;5109905;28;20469;-65
2021/04/04 06:25:24;;;;;;;31.07;14.10;;;6.30;99.90;;;;;;5110888;28;20390;-64
2021/04/04 06:27:55;;;;;;;25.93;15.43;;;6.30;99.90;;;;;;5092536;28;20495;-65
2021/04/04 06:30:46;;;;;;;21.33;13.37;;;6.30;99.90;;;;;;5089340;28;20381;-65
2021/04/04 06:33:25;;;;;;;33.50;19.97;;;6.30;99.90;;;;;;5090098;28;20405;-65
2021/04/04 06:39:20;;;;;;;29.40;24.93;;;6.30;99.90;;;;;;5131549;27;20496;-66
2021/04/04 06:53:06;;;;;;;30.27;19.30;;;6.30;99.90;;;;;;5110907;27;20514;-65
2021/04/04 06:55:57;;;;;;;28.03;19.57;;;6.50;99.90;;;;;;5112723;28;20403;-65
2021/04/04 07:06:53;;;;;;;28.70;18.90;;;6.60;99.90;;;;;;5111013;27;20506;-65
2021/04/04 07:09:45;;;;;;;23.33;17.33;;;6.60;99.90;;;;;;5110015;28;20492;-66
2021/04/04 07:12:30;;;;;;;32.93;20.87;;;6.70;99.90;;;;;;5110838;28;20420;-65
2021/04/04 07:15:19;;;;;;;27.67;19.50;;;6.70;99.90;;;;;;5111294;28;20390;-65
2021/04/04 07:26:17;;;;;;;22.90;18.83;;;6.80;99.90;;;;;;5111041;27;20500;-64
2021/04/04 07:31:46;;;;;;;20.83;17.37;;;6.90;99.90;;;;;;5131660;27;20553;-65
2021/04/04 07:34:17;;;;;;;23.50;17.07;;;6.90;99.90;;;;;;5127869;27;20928;-65
2021/04/04 07:39:35;;;;;;;23.23;15.00;;;6.90;99.90;;;;;;5131445;27;20510;-65
2021/04/04 07:50:23;;;;;;;18.23;14.97;;;7.00;99.90;;;;;;5090980;27;20513;-65
2021/04/04 07:53:28;;;;;;;24.23;15.77;;;7.10;99.90;;;;;;5073227;28;20426;-65
2021/04/04 07:56:03;;;;;;;18.00;10.30;;;7.10;99.90;;;;;;5069742;28;20759;-65
2021/04/04 07:58:37;;;;;;;14.13;8.10;;;7.20;99.90;;;;;;5070889;28;20425;-65
2021/04/04 08:01:23;;;;;;;14.70;7.00;;;7.20;99.90;;;;;;5070178;28;20389;-65
2021/04/04 08:04:00;;;;;;;14.07;5.70;;;7.30;99.90;;;;;;5070108;28;20417;-65
2021/04/04 08:06:35;;;;;;;12.87;6.50;;;7.30;99.90;;;;;;5070423;28;20390;-65
2021/04/04 08:09:26;;;;;;;8.57;4.77;;;7.30;99.90;;;;;;5070725;28;20458;-65
2021/04/04 08:12:07;;;;;;;12.10;5.90;;;7.40;99.90;;;;;;5069480;28;20391;-65
2021/04/04 08:14:44;;;;;;;9.83;4.83;;;7.40;99.90;;;;;;5069825;28;20479;-65
2021/04/04 08:17:10;;;;;;;10.70;5.13;;;7.50;99.90;;;;;;5068765;28;20842;-65
2021/04/04 08:19:38;;;;;;;8.13;4.50;;;7.50;99.90;;;;;;5070096;28;20427;-65
2021/04/04 08:22:10;;;;;;;10.53;5.20;;;7.50;99.90;;;;;;5070104;28;20172;-65
2021/04/04 08:24:42;;;;;;;10.80;5.43;;;7.50;99.90;;;;;;5070047;28;20506;-65
2021/04/04 08:27:28;;;;;;;14.87;6.80;;;7.60;99.90;;;;;;5070581;28;20419;-65
2021/04/04 08:30:02;;;;;;;13.70;6.80;;;7.50;99.90;;;;;;5069515;28;20492;-65
2021/04/04 08:32:38;;;;;;;12.77;7.20;;;7.50;99.90;;;;;;5069821;28;20767;-65
2021/04/04 08:35:07;;;;;;;17.07;8.40;;;7.50;99.90;;;;;;5068659;28;20398;-65
2021/04/04 08:37:41;;;;;;;11.83;8.67;;;7.50;99.90;;;;;;5069893;28;20409;-65
2021/04/04 08:40:11;;;;;;;13.13;6.50;;;7.50;99.90;;;;;;5080255;28;20821;-65
2021/04/04 08:42:38;;;;;;;9.73;5.90;;;7.50;99.90;;;;;;5087480;28;20450;-65
2021/04/04 08:47:47;;;;;;;11.47;6.70;;;7.60;99.90;;;;;;5131669;27;20566;-64
2021/04/04 08:50:16;;;;;;;13.77;6.57;;;7.50;99.90;;;;;;5131889;28;20447;-64
2021/04/04 08:55:27;;;;;;;10.03;7.43;;;7.50;99.90;;;;;;5131722;27;20502;-64
2021/04/04 08:57:54;;;;;;;9.33;6.07;;;7.60;99.90;;;;;;5131787;28;20381;-66
2021/04/04 09:00:24;;;;;;;7.83;6.07;;;7.60;99.90;;;;;;5130901;28;20407;-64
2021/04/04 09:02:59;;;;;;;11.83;7.90;;;7.60;99.90;;;;;;5131670;28;20374;-64
2021/04/04 09:05:26;;;;;;;16.57;11.87;;;7.60;99.90;;;;;;5131307;28;20423;-64
2021/04/04 09:07:56;;;;;;;22.73;14.10;;;7.60;99.90;;;;;;5130600;28;20391;-64
2021/04/04 09:10:23;;;;;;;18.13;13.30;;;7.70;99.90;;;;;;5131487;27;20373;-66
2021/04/04 09:12:49;;;;;;;20.93;13.60;;;7.70;99.90;;;;;;5131123;27;20890;-64
2021/04/04 09:15:16;;;;;;;17.33;9.40;;;7.70;99.90;;;;;;5131420;27;20397;-64
2021/04/04 09:17:53;;;;;;;12.57;7.47;;;7.70;99.90;;;;;;5130477;28;20466;-64
2021/04/04 09:20:31;;;;;;;14.07;6.70;;;7.70;99.90;;;;;;5131347;28;20821;-66
2021/04/04 09:22:59;;;;;;;9.93;6.03;;;7.70;99.90;;;;;;5131591;28;20396;-64
2021/04/04 09:25:25;;;;;;;16.10;10.37;;;7.70;99.90;;;;;;5130944;28;20398;-64
2021/04/04 09:27:57;;;;;;;14.53;8.47;;;7.70;99.90;;;;;;5131315;27;20412;-65
2021/04/04 09:30:23;;;;;;;14.23;7.67;;;7.70;99.90;;;;;;5131061;28;20493;-65
2021/04/04 09:32:53;;;;;;;16.57;10.90;;;7.60;99.90;;;;;;5130323;28;20461;-65
2021/04/04 09:35:21;;;;;;;14.90;9.80;;;7.70;99.90;;;;;;5131086;27;20398;-65
2021/04/04 09:37:49;;;;;;;17.87;11.33;;;7.70;99.90;;;;;;5131157;28;20385;-65
2021/04/04 09:40:17;;;;;;;14.03;10.93;;;7.70;99.90;;;;;;5130812;27;20406;-65
2021/04/04 09:42:43;;;;;;;15.53;9.63;;;7.70;99.90;;;;;;5130794;27;20469;-65
2021/04/04 09:45:17;;;;;;;21.23;10.00;;;7.80;99.90;;;;;;5130455;28;20394;-65
2021/04/04 09:47:43;;;;;;;12.33;8.90;;;7.80;99.90;;;;;;5129373;28;20388;-65
2021/04/04 09:52:54;;;;;;;17.50;12.70;;;7.90;99.90;;;;;;5111154;27;20512;-64
2021/04/04 09:55:22;;;;;;;17.57;12.57;;;7.90;99.90;;;;;;5111063;28;20374;-64
2021/04/04 09:57:50;;;;;;;18.43;13.87;;;7.80;99.90;;;;;;5110825;28;20769;-64
2021/04/04 10:00:37;;;;;;;16.80;12.80;;;7.90;99.90;;;;;;5111022;28;20382;-64
2021/04/04 10:03:13;;;;;;;17.60;12.00;;;7.90;99.90;;;;;;5109781;28;20382;-64
2021/04/04 10:05:41;;;;;;;22.33;13.37;;;7.90;99.90;;;;;;5110066;28;20391;-64
2021/04/04 10:13:28;;;;;;;20.93;14.23;;;8.00;99.90;;;;;;5090641;28;20561;-65
2021/04/04 10:15:54;;;;;;;19.33;13.70;;;8.00;99.90;;;;;;5089337;28;20886;-65
2021/04/04 10:18:22;;;;;;;16.40;14.23;;;8.00;99.90;;;;;;5090736;28;20388;-65
2021/04/04 10:20:52;;;;;;;17.60;13.47;;;8.10;99.90;;;;;;5106797;28;20871;-65
2021/04/04 10:23:26;;;;;;;17.23;12.27;;;8.10;99.90;;;;;;5089550;28;20398;-65
2021/04/04 10:25:58;;;;;;;20.20;12.10;;;8.10;99.90;;;;;;5071654;28;20433;-65
2021/04/04 10:28:24;;;;;;;16.73;13.17;;;8.20;99.90;;;;;;5070148;28;20396;-65
2021/04/04 10:30:56;;;;;;;18.50;11.70;;;8.20;99.90;;;;;;5070068;28;20398;-65
2021/04/04 10:33:25;;;;;;;17.17;13.47;;;8.30;99.90;;;;;;5070512;28;20231;-65
2021/04/04 10:35:53;;;;;;;19.83;13.73;;;8.30;99.90;;;;;;5070060;28;20386;-65
2021/04/04 10:38:22;;;;;;;19.83;14.00;;;8.40;99.90;;;;;;5068992;28;20439;-65
2021/04/04 10:40:51;;;;;;;22.73;14.87;;;8.40;99.90;;;;;;5085594;28;20400;-65
2021/04/04 10:43:20;;;;;;;17.67;13.40;;;8.40;99.90;;;;;;5089973;28;20396;-65
2021/04/04 10:48:43;;;;;;;21.23;15.20;;;8.50;99.90;;;;;;5132190;27;20507;-64
2021/04/04 10:51:11;;;;;;;17.97;15.23;;;8.60;99.90;;;;;;5131733;27;20382;-64
2021/04/04 10:53:37;;;;;;;27.40;17.27;;;8.60;99.90;;;;;;5131542;27;20843;-64
2021/04/04 10:56:06;;;;;;;24.10;16.17;;;8.60;99.90;;;;;;5131592;27;20390;-64
2021/04/04 10:58:31;;;;;;;24.73;17.53;;;8.70;99.90;;;;;;5124061;28;20412;-64
2021/04/04 11:00:59;;;;;;;19.50;15.77;;;8.70;99.90;;;;;;5111372;28;20410;-64
2021/04/04 11:03:26;;;;;;;24.60;16.43;;;8.60;99.90;;;;;;5111224;28;20606;-64
2021/04/04 11:05:51;;;;;;;22.87;17.43;;;8.60;99.90;;;;;;5110699;28;20384;-65
2021/04/04 11:08:18;;;;;;;26.90;18.53;;;8.60;99.90;;;;;;5110661;28;20443;-65
2021/04/04 11:10:44;;;;;;;24.90;19.20;;;8.70;99.90;;;;;;5110855;28;20244;-65
2021/04/04 11:13:13;;;;;;;25.00;18.70;;;8.70;99.90;;;;;;5109189;28;20403;-65
2021/04/04 11:15:41;;;;;;;26.47;17.43;;;8.70;99.90;;;;;;5109976;28;20837;-65
2021/04/04 11:18:14;;;;;;;23.57;15.27;;;8.80;99.90;;;;;;5110803;28;20399;-65
2021/04/04 11:20:42;;;;;;;19.97;15.90;;;8.80;99.90;;;;;;5110587;28;20483;-65
2021/04/04 11:23:09;;;;;;;19.90;15.70;;;8.80;99.90;;;;;;5110599;28;20393;-65
2021/04/04 11:25:35;;;;;;;24.80;17.53;;;8.80;99.90;;;;;;5110372;28;20407;-65
2021/04/04 11:28:14;;;;;;;24.03;17.43;;;8.70;99.90;;;;;;5110230;28;20446;-65
2021/04/04 11:30:42;;;;;;;30.13;19.60;;;8.70;99.90;;;;;;5109641;28;20876;-65
2021/04/04 11:41:29;;;;;;;35.13;25.60;;;8.80;99.90;;;;;;5090675;27;20921;-65
2021/04/04 11:44:17;;;;;;;29.93;23.20;;;8.80;99.90;;;;;;5091065;28;20402;-65
2021/04/04 11:46:51;;;;;;;36.63;23.23;;;8.80;99.90;;;;;;5089497;28;20823;-64
2021/04/04 11:54:56;;;;;;;32.07;21.70;;;8.80;99.90;;;;;;5131515;27;20534;-64
2021/04/04 11:57:26;;;;;;;28.97;20.97;;;8.90;99.90;;;;;;5131915;27;20397;-64
2021/04/04 11:59:58;;;;;;;29.80;21.80;;;9.00;99.90;;;;;;5130632;28;20791;-65
2021/04/04 12:02:29;;;;;;;29.10;21.47;;;8.90;99.90;;;;;;5131295;27;20393;-64
2021/04/04 12:07:49;;;;;;;30.07;21.17;;;8.90;99.90;;;;;;5095396;27;20510;-65
2021/04/04 12:10:20;;;;;;;32.23;22.30;;;8.90;99.90;;;;;;5090725;28;20757;-65
2021/04/04 12:12:46;;;;;;;30.43;22.60;;;9.00;99.90;;;;;;5073724;28;20417;-65
2021/04/04 12:15:13;;;;;;;29.53;22.87;;;9.00;99.90;;;;;;5072624;28;20384;-65
2021/04/04 12:17:47;;;;;;;33.00;22.73;;;9.00;99.90;;;;;;5090654;28;20385;-64
2021/04/04 12:20:13;;;;;;;34.13;25.70;;;9.00;99.90;;;;;;5090491;28;20472;-64
2021/04/04 12:22:41;;;;;;;33.37;26.30;;;9.00;99.90;;;;;;5072349;28;20381;-64
2021/04/04 12:25:10;;;;;;;30.10;22.57;;;9.10;99.90;;;;;;5072221;28;20977;-64
2021/04/04 12:27:38;;;;;;;33.80;22.87;;;9.10;99.90;;;;;;5072991;28;20393;-64
2021/04/04 12:30:05;;;;;;;24.53;20.27;;;9.10;99.90;;;;;;5072370;28;20787;-64
2021/04/04 12:32:32;;;;;;;24.27;18.70;;;9.10;99.90;;;;;;5090135;28;20427;-64
2021/04/04 12:35:01;;;;;;;25.77;18.80;;;9.10;99.90;;;;;;5072358;28;20901;-65
2021/04/04 12:37:29;;;;;;;28.43;18.93;;;9.10;99.90;;;;;;5072674;28;20388;-64
2021/04/04 12:39:57;;;;;;;27.10;19.40;;;9.20;99.90;;;;;;5071688;28;20415;-64
2021/04/04 12:42:26;;;;;;;26.53;19.73;;;9.30;99.90;;;;;;5072683;28;20384;-64
2021/04/04 12:44:51;;;;;;;24.43;19.00;;;9.30;99.90;;;;;;5090129;28;20431;-64
2021/04/04 12:47:20;;;;;;;30.30;21.80;;;9.30;99.90;;;;;;5089654;28;21067;-64
2021/04/04 12:49:56;;;;;;;32.57;23.07;;;9.30;99.90;;;;;;5088992;28;20170;-64
2021/04/04 12:55:33;;;;;;;32.43;23.00;;;9.40;99.90;;;;;;5111483;27;20498;-65
2021/04/04 12:58:03;;;;;;;30.40;24.30;;;9.40;99.90;;;;;;5099681;28;20405;-65
2021/04/04 13:00:37;;;;;;;30.87;24.90;;;9.40;99.90;;;;;;5090479;28;20481;-65
2021/04/04 13:08:21;;;;;;;35.80;27.03;;;9.50;99.90;;;;;;5090735;28;21050;-65
2021/04/04 13:13:27;;;;;;;38.00;28.50;;;9.60;99.90;;;;;;5131525;27;20867;-65
2021/04/04 13:15:56;;;;;;;40.87;31.00;;;9.60;99.90;;;;;;5113804;27;20407;-65
2021/04/04 13:18:26;;;;;;;40.03;31.10;;;9.60;99.90;;;;;;5109998;28;20381;-65
2021/04/04 13:20:54;;;;;;;45.03;34.90;;;9.60;99.90;;;;;;5110709;28;20423;-65
2021/04/04 13:23:20;;;;;;;46.77;35.40;;;9.60;99.90;;;;;;5111096;28;20422;-65
2021/04/04 13:25:46;;;;;;;44.23;34.23;;;9.70;99.90;;;;;;5110965;28;20424;-65
2021/04/04 13:28:24;;;;;;;46.37;35.70;;;9.70;99.90;;;;;;5110661;28;20242;-65
2021/04/04 13:30:49;;;;;;;45.47;33.00;;;9.70;99.90;;;;;;5111562;28;20520;-65
2021/04/04 13:33:15;;;;;;;46.93;32.90;;;9.70;99.90;;;;;;5110701;28;20452;-65
2021/04/04 13:35:41;;;;;;;36.77;30.20;;;9.70;99.90;;;;;;5110426;28;20158;-65
2021/04/04 13:38:07;;;;;;;42.30;33.60;;;9.70;99.90;;;;;;5111480;27;20170;-65
2021/04/04 13:40:33;;;;;;;42.20;32.00;;;9.80;99.90;;;;;;5125812;28;20881;-65
2021/04/04 13:43:01;;;;;;;47.20;29.57;;;9.80;99.90;;;;;;5131087;27;20161;-65
2021/04/04 13:45:48;;;;;;;38.77;31.10;;;9.80;99.90;;;;;;5130015;28;20869;-65
2021/04/04 13:48:27;;;;;;;36.20;28.23;;;9.80;99.90;;;;;;5128849;28;20529;-65
2021/04/04 13:50:53;;;;;;;39.97;32.43;;;9.90;99.90;;;;;;5130989;27;20396;-65
2021/04/04 13:53:23;;;;;;;40.73;33.60;;;9.90;99.80;;;;;;5130913;27;20444;-65
2021/04/04 13:55:51;;;;;;;36.20;31.63;;;9.90;99.60;;;;;;5130954;27;20166;-65
2021/04/04 13:58:35;;;;;;;42.70;32.93;;;9.90;99.60;;;;;;5130709;27;20470;-65
2021/04/04 14:01:06;;;;;;;39.37;33.10;;;10.00;99.00;;;;;;5130838;27;20793;-65
2021/04/04 14:03:36;;;;;;;38.33;33.50;;;10.00;98.10;;;;;;5129439;28;20487;-65
2021/04/04 14:06:08;;;;;;;38.00;31.27;;;10.00;97.90;;;;;;5130249;27;20408;-65
2021/04/04 14:08:35;;;;;;;40.70;29.23;;;10.10;97.80;;;;;;5129410;28;20417;-65
2021/04/04 14:11:02;;;;;;;30.13;25.90;;;10.20;97.80;;;;;;5130590;27;20467;-65
2021/04/04 14:13:28;;;;;;;28.83;24.30;;;10.30;97.60;;;;;;5129067;28;20823;-65
2021/04/04 14:15:53;;;;;;;34.20;25.40;;;10.40;96.90;;;;;;5130303;27;20388;-65
2021/04/04 14:18:24;;;;;;;29.77;24.47;;;10.30;96.80;;;;;;5130417;27;20156;-65
2021/04/04 14:20:51;;;;;;;27.80;23.93;;;10.40;96.50;;;;;;5130771;27;20186;-65
2021/04/04 14:23:16;;;;;;;26.07;22.80;;;10.50;96.50;;;;;;5124652;27;20497;-65
2021/04/04 14:25:42;;;;;;;27.50;24.60;;;10.50;96.10;;;;;;5116504;28;21266;-65
2021/04/04 14:28:07;;;;;;;40.50;29.53;;;10.50;95.80;;;;;;5116361;28;20688;-65
2021/04/04 14:30:33;;;;;;;29.40;24.90;;;10.50;95.50;;;;;;5116321;28;20156;-65
2021/04/04 14:32:59;;;;;;;30.80;22.00;;;10.50;95.50;;;;;;5116222;28;20660;-65
2021/04/04 14:35:25;;;;;;;27.03;21.40;;;10.50;95.50;;;;;;5116596;28;20152;-65
2021/04/04 14:37:51;;;;;;;24.20;17.50;;;10.50;95.70;;;;;;5116410;28;20730;-65
2021/04/04 14:40:16;;;;;;;20.63;16.70;;;10.60;95.70;;;;;;5103342;28;20177;-65
2021/04/04 14:42:42;;;;;;;16.70;14.00;;;10.60;95.40;;;;;;5095853;28;20165;-65
2021/04/04 14:45:09;;;;;;;17.40;15.07;;;10.70;95.50;;;;;;5095622;28;20538;-65
2021/04/04 14:47:34;;;;;;;20.37;13.30;;;10.70;95.00;;;;;;5095981;28;20168;-65